createdAt,value
2019-02-09T00:00:14.077Z,21.8
2019-02-09T00:01:16.882Z,21.8
2019-02-09T00:02:18.619Z,21.8
2019-02-09T00:03:26.339Z,21.8
2019-02-09T00:04:24.520Z,21.8
2019-02-09T00:05:32.910Z,21.7
2019-02-09T00:06:35.600Z,21.7
2019-02-09T00:07:34.258Z,21.7
2019-02-09T00:08:39.383Z,21.7
2019-02-09T00:09:40.819Z,21.6
2019-02-09T00:10:39.150Z,21.6
2019-02-09T00:11:37.521Z,21.6
2019-02-09T00:12:36.062Z,21.6
2019-02-09T00:13:33.831Z,21.6
2019-02-09T00:14:31.787Z,21.6
2019-02-09T00:15:31.714Z,21.5
2019-02-09T00:16:30.466Z,21.5
2019-02-09T00:17:31.518Z,21.5
2019-02-09T00:18:31.501Z,21.5
2019-02-09T00:19:29.614Z,21.5
2019-02-09T00:20:27.758Z,21.5
2019-02-09T00:21:25.698Z,21.4
2019-02-09T00:22:25.063Z,21.5
2019-02-09T00:23:23.196Z,21.4
2019-02-09T00:24:24.109Z,21.4
2019-02-09T00:25:24.278Z,21.4
2019-02-09T00:26:24.053Z,21.4
2019-02-09T00:27:22.805Z,21.4
2019-02-09T00:28:26.355Z,21.4
2019-02-09T00:29:28.599Z,21.4
2019-02-09T00:30:28.433Z,21.3
2019-02-09T00:31:26.931Z,21.3
2019-02-09T00:32:24.723Z,21.3
2019-02-09T00:33:22.424Z,21.3
2019-02-09T00:34:29.267Z,21.3
2019-02-09T00:35:28.904Z,21.2
2019-02-09T00:36:28.047Z,21.3
2019-02-09T00:37:28.212Z,21.2
2019-02-09T00:38:26.383Z,21.2
2019-02-09T00:39:35.801Z,21.2
2019-02-09T00:40:35.020Z,21.2
2019-02-09T00:41:38.890Z,21.2
2019-02-09T00:42:41.147Z,21.1
2019-02-09T00:43:43.153Z,21.1
2019-02-09T00:44:42.412Z,21.1
2019-02-09T00:45:41.009Z,21.1
2019-02-09T00:46:41.050Z,21
2019-02-09T00:47:41.650Z,21.1
2019-02-09T00:48:39.871Z,21.1
2019-02-09T00:49:42.901Z,21
2019-02-09T00:50:40.834Z,21
2019-02-09T00:51:42.987Z,21
2019-02-09T00:52:42.497Z,21
2019-02-09T00:53:49.654Z,21
2019-02-09T00:54:48.303Z,21
2019-02-09T00:55:47.435Z,21
2019-02-09T00:56:45.071Z,21
2019-02-09T00:57:44.676Z,20.9
2019-02-09T00:58:43.048Z,21
2019-02-09T00:59:41.941Z,20.9
2019-02-09T01:00:40.631Z,20.9
2019-02-09T01:01:38.530Z,20.9
2019-02-09T01:02:36.053Z,20.9
2019-02-09T01:03:34.603Z,20.9
2019-02-09T01:04:32.313Z,20.9
2019-02-09T01:05:30.188Z,20.9
2019-02-09T01:06:28.661Z,20.8
2019-02-09T01:07:27.040Z,20.8
2019-02-09T01:08:26.960Z,20.8
2019-02-09T01:09:33.424Z,20.8
2019-02-09T01:10:28.500Z,20.8
2019-02-09T01:11:29.673Z,20.8
2019-02-09T01:12:31.333Z,20.8
2019-02-09T01:13:30.310Z,20.8
2019-02-09T01:14:34.954Z,20.8
2019-02-09T01:15:33.906Z,20.7
2019-02-09T01:16:32.562Z,20.7
2019-02-09T01:17:32.969Z,20.7
2019-02-09T01:18:30.878Z,20.7
2019-02-09T01:19:28.479Z,20.7
2019-02-09T01:20:30.311Z,20.7
2019-02-09T01:21:37.716Z,20.7
2019-02-09T01:22:36.256Z,20.6
2019-02-09T01:23:37.500Z,20.6
2019-02-09T01:24:36.826Z,20.7
2019-02-09T01:25:41.124Z,20.6
2019-02-09T01:26:43.220Z,20.6
2019-02-09T01:27:40.610Z,20.6
2019-02-09T01:28:38.910Z,20.6
2019-02-09T01:29:37.186Z,20.6
2019-02-09T01:30:37.998Z,20.6
2019-02-09T01:31:38.461Z,20.6
2019-02-09T01:32:36.582Z,20.6
2019-02-09T01:33:35.464Z,20.6
2019-02-09T01:34:37.826Z,20.5
2019-02-09T01:35:42.796Z,20.5
2019-02-09T01:36:44.379Z,20.5
2019-02-09T01:37:44.727Z,20.5
2019-02-09T01:38:45.584Z,20.5
2019-02-09T01:39:45.641Z,20.5
2019-02-09T01:40:42.949Z,20.5
2019-02-09T01:41:43.872Z,20.5
2019-02-09T01:42:44.464Z,20.5
2019-02-09T01:43:41.633Z,20.5
2019-02-09T01:44:38.945Z,20.4
2019-02-09T01:45:39.536Z,20.5
2019-02-09T01:46:39.205Z,20.4
2019-02-09T01:47:37.848Z,20.4
2019-02-09T01:48:35.723Z,20.4
2019-02-09T01:49:39.276Z,20.4
2019-02-09T01:50:39.737Z,20.4
2019-02-09T01:51:40.050Z,20.4
2019-02-09T01:52:48.801Z,20.4
2019-02-09T01:53:47.446Z,20.4
2019-02-09T01:54:45.362Z,20.4
2019-02-09T01:55:44.013Z,20.4
2019-02-09T01:56:41.299Z,20.3
2019-02-09T01:57:45.489Z,20.3
2019-02-09T01:58:44.305Z,20.3
2019-02-09T01:59:46.744Z,20.3
2019-02-09T02:00:48.242Z,20.3
2019-02-09T02:01:45.624Z,20.3
2019-02-09T02:02:46.602Z,20.3
2019-02-09T02:03:52.690Z,20.3
2019-02-09T02:04:52.469Z,20.3
2019-02-09T02:05:50.131Z,20.3
2019-02-09T02:06:49.528Z,20.3
2019-02-09T02:07:53.778Z,20.3
2019-02-09T02:08:52.574Z,20.2
2019-02-09T02:09:52.024Z,20.2
2019-02-09T02:10:49.543Z,20.3
2019-02-09T02:11:49.487Z,20.2
2019-02-09T02:12:47.919Z,20.2
2019-02-09T02:13:45.960Z,20.2
2019-02-09T02:14:46.769Z,20.2
2019-02-09T02:15:44.586Z,20.2
2019-02-09T02:16:50.258Z,20.2
2019-02-09T02:17:49.020Z,20.2
2019-02-09T02:18:46.383Z,20.2
2019-02-09T02:19:50.191Z,20.2
2019-02-09T02:20:52.749Z,20.2
2019-02-09T02:21:53.841Z,20.2
2019-02-09T02:22:52.074Z,20.1
2019-02-09T02:23:50.956Z,20.1
2019-02-09T02:24:53.071Z,20.1
2019-02-09T02:25:50.799Z,20.1
2019-02-09T02:26:48.922Z,20.1
2019-02-09T02:27:49.882Z,20.1
2019-02-09T02:28:47.205Z,20.1
2019-02-09T02:29:46.149Z,20.1
2019-02-09T02:30:44.065Z,20.1
2019-02-09T02:31:42.771Z,20.1
2019-02-09T02:32:43.255Z,20
2019-02-09T02:33:48.092Z,20
2019-02-09T02:34:47.241Z,20.1
2019-02-09T02:35:48.495Z,20
2019-02-09T02:36:52.837Z,20
2019-02-09T02:37:58.520Z,20
2019-02-09T02:38:57.100Z,20
2019-02-09T02:39:55.750Z,20
2019-02-09T02:41:06.951Z,20
2019-02-09T02:42:06.769Z,20
2019-02-09T02:43:05.869Z,20
2019-02-09T02:44:07.596Z,20
2019-02-09T02:45:05.566Z,20
2019-02-09T02:46:08.382Z,20
2019-02-09T02:47:05.623Z,20
2019-02-09T02:48:05.768Z,20
2019-02-09T02:49:03.285Z,20
2019-02-09T02:50:06.090Z,20
2019-02-09T02:51:06.077Z,20
2019-02-09T02:52:03.600Z,19.9
2019-02-09T02:53:02.845Z,19.9
2019-02-09T02:54:14.606Z,20
2019-02-09T02:55:13.275Z,19.9
2019-02-09T02:56:11.276Z,19.9
2019-02-09T02:57:22.737Z,19.9
2019-02-09T02:58:22.948Z,19.9
2019-02-09T02:59:20.285Z,19.9
2019-02-09T03:00:18.931Z,19.9
2019-02-09T03:01:18.410Z,19.9
2019-02-09T03:02:23.242Z,19.9
2019-02-09T03:03:22.409Z,19.9
2019-02-09T03:04:21.790Z,19.9
2019-02-09T03:05:19.174Z,19.8
2019-02-09T03:06:22.251Z,19.8
2019-02-09T03:07:20.357Z,19.9
2019-02-09T03:08:17.954Z,19.9
2019-02-09T03:09:19.984Z,19.8
2019-02-09T03:10:19.478Z,19.8
2019-02-09T03:11:18.310Z,19.8
2019-02-09T03:12:16.851Z,19.8
2019-02-09T03:13:19.369Z,19.9
2019-02-09T03:14:34.806Z,19.8
2019-02-09T03:15:34.397Z,19.8
2019-02-09T03:16:33.151Z,19.8
2019-02-09T03:17:30.682Z,19.8
2019-02-09T03:18:30.088Z,19.8
2019-02-09T03:19:29.990Z,19.8
2019-02-09T03:20:29.058Z,19.8
2019-02-09T03:21:26.431Z,19.8
2019-02-09T03:22:24.887Z,19.8
2019-02-09T03:23:24.513Z,19.7
2019-02-09T03:24:23.980Z,19.8
2019-02-09T03:25:21.901Z,19.8
2019-02-09T03:26:20.555Z,19.8
2019-02-09T03:27:23.189Z,19.7
2019-02-09T03:28:24.502Z,19.7
2019-02-09T03:29:29.401Z,19.7
2019-02-09T03:30:27.721Z,19.7
2019-02-09T03:31:27.307Z,19.7
2019-02-09T03:32:26.446Z,19.7
2019-02-09T03:33:34.752Z,19.7
2019-02-09T03:34:34.055Z,19.7
2019-02-09T03:35:31.295Z,19.7
2019-02-09T03:36:35.684Z,19.7
2019-02-09T03:37:33.002Z,19.7
2019-02-09T03:38:35.437Z,19.7
2019-02-09T03:39:33.229Z,19.7
2019-02-09T03:40:33.357Z,19.6
2019-02-09T03:41:32.269Z,19.7
2019-02-09T03:42:29.848Z,19.7
2019-02-09T03:43:31.553Z,19.7
2019-02-09T03:44:29.335Z,19.7
2019-02-09T03:45:26.394Z,19.7
2019-02-09T03:46:31.647Z,19.6
2019-02-09T03:47:34.679Z,19.6
2019-02-09T03:48:38.037Z,19.6
2019-02-09T03:49:36.222Z,19.6
2019-02-09T03:50:34.141Z,19.6
2019-02-09T03:51:36.793Z,19.6
2019-02-09T03:52:45.158Z,19.6
2019-02-09T03:53:45.848Z,19.6
2019-02-09T03:54:45.621Z,19.6
2019-02-09T03:55:44.256Z,19.6
2019-02-09T03:56:42.747Z,19.6
2019-02-09T03:57:41.608Z,19.6
2019-02-09T03:58:47.369Z,19.6
2019-02-09T03:59:47.602Z,19.6
2019-02-09T04:00:55.387Z,19.6
2019-02-09T04:01:58.575Z,19.6
2019-02-09T04:02:56.080Z,19.5
2019-02-09T04:04:02.903Z,19.6
2019-02-09T04:05:01.840Z,19.6
2019-02-09T04:05:59.151Z,19.5
2019-02-09T04:06:56.359Z,19.5
2019-02-09T04:08:04.783Z,19.5
2019-02-09T04:09:01.782Z,19.5
2019-02-09T04:10:01.487Z,19.5
2019-02-09T04:10:58.432Z,19.5
2019-02-09T04:12:06.212Z,19.5
2019-02-09T04:13:03.185Z,19.5
2019-02-09T04:14:02.377Z,19.5
2019-02-09T04:15:00.183Z,19.5
2019-02-09T04:15:59.255Z,19.5
2019-02-09T04:16:58.981Z,19.5
2019-02-09T04:17:58.563Z,19.5
2019-02-09T04:18:56.726Z,19.5
2019-02-09T04:19:59.350Z,19.5
2019-02-09T04:20:57.010Z,19.5
2019-02-09T04:21:54.620Z,19.5
2019-02-09T04:22:55.757Z,19.5
2019-02-09T04:23:54.942Z,19.5
2019-02-09T04:24:52.275Z,19.4
2019-02-09T04:25:52.783Z,19.5
2019-02-09T04:26:50.677Z,19.5
2019-02-09T04:27:50.235Z,19.5
2019-02-09T04:28:48.459Z,19.5
2019-02-09T04:29:46.110Z,19.5
2019-02-09T04:30:43.840Z,19.5
2019-02-09T04:31:50.468Z,19.4
2019-02-09T04:32:50.850Z,19.4
2019-02-09T04:34:07.603Z,19.4
2019-02-09T04:35:12.455Z,19.4
2019-02-09T04:36:11.539Z,19.4
2019-02-09T04:37:14.504Z,19.4
2019-02-09T04:38:15.556Z,19.4
2019-02-09T04:39:15.292Z,19.4
2019-02-09T04:40:12.400Z,19.4
2019-02-09T04:41:14.846Z,19.4
2019-02-09T04:42:12.454Z,19.4
2019-02-09T04:43:18.434Z,19.4
2019-02-09T04:44:17.942Z,19.4
2019-02-09T04:45:18.309Z,19.4
2019-02-09T04:46:17.598Z,19.4
2019-02-09T04:47:17.319Z,19.4
2019-02-09T04:48:24.761Z,19.4
2019-02-09T04:49:21.694Z,19.4
2019-02-09T04:50:19.760Z,19.4
2019-02-09T04:51:18.741Z,19.4
2019-02-09T04:52:24.707Z,19.4
2019-02-09T04:53:22.897Z,19.4
2019-02-09T04:54:25.266Z,19.4
2019-02-09T04:55:25.909Z,19.3
2019-02-09T04:56:23.304Z,19.4
2019-02-09T04:57:22.219Z,19.3
2019-02-09T04:58:19.239Z,19.3
2019-02-09T04:59:16.297Z,19.3
2019-02-09T05:00:14.396Z,19.3
2019-02-09T05:01:14.122Z,19.3
2019-02-09T05:02:10.971Z,19.3
2019-02-09T05:03:10.221Z,19.3
2019-02-09T05:04:08.129Z,19.3
2019-02-09T05:05:05.159Z,19.3
2019-02-09T05:06:02.684Z,19.3
2019-02-09T05:06:59.942Z,19.3
2019-02-09T05:07:58.386Z,19.3
2019-02-09T05:09:00.012Z,19.3
2019-02-09T05:09:58.565Z,19.3
2019-02-09T05:11:00.198Z,19.3
2019-02-09T05:12:00.711Z,19.3
2019-02-09T05:13:00.539Z,19.3
2019-02-09T05:13:58.510Z,19.3
2019-02-09T05:15:00.434Z,19.3
2019-02-09T05:16:00.254Z,19.3
2019-02-09T05:16:58.523Z,19.3
2019-02-09T05:17:55.861Z,19.3
2019-02-09T05:18:57.937Z,19.3
2019-02-09T05:19:59.864Z,19.3
2019-02-09T05:21:01.770Z,19.2
2019-02-09T05:21:59.192Z,19.3
2019-02-09T05:22:59.423Z,19.2
2019-02-09T05:23:57.273Z,19.2
2019-02-09T05:24:54.406Z,19.3
2019-02-09T05:25:55.854Z,19.2
2019-02-09T05:26:54.692Z,19.2
2019-02-09T05:27:57.304Z,19.3
2019-02-09T05:28:54.657Z,19.2
2019-02-09T05:29:55.172Z,19.3
2019-02-09T05:30:52.983Z,19.2
2019-02-09T05:31:54.863Z,19.2
2019-02-09T05:32:53.510Z,19.3
2019-02-09T05:33:51.984Z,19.2
2019-02-09T05:34:48.878Z,19.2
2019-02-09T05:35:46.947Z,19.2
2019-02-09T05:36:44.985Z,19.2
2019-02-09T05:37:43.137Z,19.2
2019-02-09T05:38:41.746Z,19.2
2019-02-09T05:39:41.172Z,19.2
2019-02-09T05:40:42.299Z,19.2
2019-02-09T05:41:43.954Z,19.2
2019-02-09T05:42:44.890Z,19.2
2019-02-09T05:43:42.882Z,19.2
2019-02-09T05:44:45.382Z,19.2
2019-02-09T05:45:44.119Z,19.2
2019-02-09T05:46:41.260Z,19.2
2019-02-09T05:47:41.794Z,19.2
2019-02-09T05:48:45.005Z,19.2
2019-02-09T05:49:44.374Z,19.2
2019-02-09T05:50:41.646Z,19.2
2019-02-09T05:51:39.033Z,19.2
2019-02-09T05:52:37.545Z,19.2
2019-02-09T05:53:36.068Z,19.2
2019-02-09T05:54:33.232Z,19.2
2019-02-09T05:55:30.836Z,19.2
2019-02-09T05:56:31.296Z,19.1
2019-02-09T05:57:28.021Z,19.1
2019-02-09T05:58:30.318Z,19.1
2019-02-09T05:59:27.610Z,19.2
2019-02-09T06:00:33.579Z,19.2
2019-02-09T06:01:32.781Z,19.1
2019-02-09T06:02:34.005Z,19.1
2019-02-09T06:03:31.019Z,19.2
2019-02-09T06:04:32.259Z,19.1
2019-02-09T06:05:29.551Z,19.1
2019-02-09T06:06:27.289Z,19.1
2019-02-09T06:07:27.523Z,19.1
2019-02-09T06:08:26.452Z,19.1
2019-02-09T06:09:24.839Z,19.1
2019-02-09T06:10:24.405Z,19.1
2019-02-09T06:11:21.895Z,19.1
2019-02-09T06:12:19.763Z,19.1
2019-02-09T06:13:20.617Z,19.1
2019-02-09T06:14:20.141Z,19.1
2019-02-09T06:15:24.698Z,19.1
2019-02-09T06:16:25.685Z,19.1
2019-02-09T06:17:24.751Z,19.1
2019-02-09T06:18:24.949Z,19.1
2019-02-09T06:19:24.960Z,19.1
2019-02-09T06:20:28.200Z,19.1
2019-02-09T06:21:10.747Z,19.1
2019-02-09T06:22:09.064Z,19.1
2019-02-09T06:23:07.786Z,19.1
2019-02-09T06:24:09.572Z,19.1
2019-02-09T06:25:08.890Z,19.1
2019-02-09T06:26:07.207Z,19.1
2019-02-09T06:27:06.544Z,19.1
2019-02-09T06:28:04.372Z,19.1
2019-02-09T06:29:02.069Z,19.1
2019-02-09T06:29:59.740Z,19.1
2019-02-09T06:30:57.395Z,19.1
2019-02-09T06:31:59.994Z,19.1
2019-02-09T06:32:57.621Z,19.1
2019-02-09T06:33:59.246Z,19.1
2019-02-09T06:34:59.815Z,19.1
2019-02-09T06:36:00.024Z,19.1
2019-02-09T06:37:05.745Z,19.1
2019-02-09T06:38:03.269Z,19
2019-02-09T06:39:05.992Z,19
2019-02-09T06:40:03.785Z,19
2019-02-09T06:41:01.736Z,19
2019-02-09T06:43:23.649Z,19
2019-02-09T06:44:19.241Z,19
2019-02-09T06:45:20.548Z,19
2019-02-09T06:46:25.793Z,19
2019-02-09T06:47:26.780Z,19
2019-02-09T06:48:24.645Z,19.1
2019-02-09T06:49:23.920Z,19
2019-02-09T06:50:25.056Z,19
2019-02-09T06:51:30.504Z,19
2019-02-09T06:52:40.554Z,19
2019-02-09T06:53:38.230Z,19
2019-02-09T06:54:37.255Z,19
2019-02-09T06:55:35.917Z,19
2019-02-09T06:56:37.559Z,19
2019-02-09T06:57:36.066Z,19
2019-02-09T06:58:34.177Z,19
2019-02-09T06:59:34.090Z,19
2019-02-09T07:00:36.761Z,19
2019-02-09T07:01:35.890Z,19
2019-02-09T07:02:34.580Z,19
2019-02-09T07:03:35.295Z,19
2019-02-09T07:04:34.635Z,19
2019-02-09T07:05:34.454Z,19
2019-02-09T07:06:33.577Z,19
2019-02-09T07:07:33.367Z,19
2019-02-09T07:08:32.662Z,19
2019-02-09T07:09:33.807Z,19
2019-02-09T07:10:32.728Z,19
2019-02-09T07:11:33.523Z,19
2019-02-09T07:12:40.075Z,19
2019-02-09T07:13:46.336Z,19
2019-02-09T07:14:46.017Z,19
2019-02-09T07:15:52.058Z,19
2019-02-09T07:16:51.685Z,19
2019-02-09T07:17:50.045Z,19
2019-02-09T07:18:51.810Z,19
2019-02-09T07:19:52.387Z,19
2019-02-09T07:20:57.544Z,18.9
2019-02-09T07:21:56.504Z,19
2019-02-09T07:22:54.487Z,18.9
2019-02-09T07:23:52.237Z,18.9
2019-02-09T07:24:49.915Z,18.9
2019-02-09T07:25:52.775Z,18.9
2019-02-09T07:26:53.302Z,19
2019-02-09T07:27:58.790Z,18.9
2019-02-09T07:28:58.989Z,18.9
2019-02-09T07:29:56.765Z,18.9
2019-02-09T07:30:54.422Z,18.9
2019-02-09T07:31:56.465Z,18.9
2019-02-09T07:32:52.602Z,18.9
2019-02-09T07:33:55.788Z,18.9
2019-02-09T07:34:56.763Z,18.9
2019-02-09T07:35:55.579Z,18.9
2019-02-09T07:36:53.351Z,18.9
2019-02-09T07:37:52.450Z,18.9
2019-02-09T07:38:53.187Z,18.9
2019-02-09T07:39:52.242Z,18.9
2019-02-09T07:40:51.260Z,18.9
2019-02-09T07:41:56.158Z,18.9
2019-02-09T07:42:54.774Z,18.9
2019-02-09T07:43:52.551Z,18.9
2019-02-09T07:44:53.962Z,18.9
2019-02-09T07:45:56.524Z,18.9
2019-02-09T07:46:54.934Z,18.9
2019-02-09T07:47:52.720Z,18.9
2019-02-09T07:48:53.002Z,18.9
2019-02-09T07:49:56.555Z,18.9
2019-02-09T07:50:59.227Z,18.9
2019-02-09T07:51:59.238Z,18.9
2019-02-09T07:53:06.975Z,18.9
2019-02-09T07:54:15.360Z,18.9
2019-02-09T07:55:10.075Z,18.9
2019-02-09T07:56:10.756Z,18.9
2019-02-09T07:57:11.706Z,18.9
2019-02-09T07:58:13.467Z,18.9
2019-02-09T07:59:11.557Z,18.9
2019-02-09T08:00:23.207Z,18.9
2019-02-09T08:01:21.757Z,18.9
2019-02-09T08:02:32.244Z,18.9
2019-02-09T08:03:33.263Z,18.9
2019-02-09T08:04:31.136Z,18.9
2019-02-09T08:05:33.412Z,18.9
2019-02-09T08:06:29.800Z,18.9
2019-02-09T08:07:36.447Z,18.9
2019-02-09T08:08:34.827Z,18.9
2019-02-09T08:09:34.852Z,18.9
2019-02-09T08:10:36.717Z,18.9
2019-02-09T08:11:34.651Z,18.8
2019-02-09T08:12:32.411Z,18.8
2019-02-09T08:13:32.488Z,18.8
2019-02-09T08:14:36.556Z,18.7
2019-02-09T08:15:34.484Z,18.7
2019-02-09T08:16:33.273Z,18.6
2019-02-09T08:17:34.074Z,18.6
2019-02-09T08:18:32.330Z,18.5
2019-02-09T08:19:30.842Z,18.4
2019-02-09T08:20:31.537Z,18.4
2019-02-09T08:21:31.134Z,18.3
2019-02-09T08:22:29.151Z,18.2
2019-02-09T08:23:26.929Z,18.2
2019-02-09T08:24:27.968Z,18.1
2019-02-09T08:25:25.801Z,18
2019-02-09T08:26:28.874Z,18
2019-02-09T08:27:29.750Z,17.9
2019-02-09T08:28:25.758Z,17.8
2019-02-09T08:29:26.575Z,17.8
2019-02-09T08:30:26.908Z,17.7
2019-02-09T08:31:24.327Z,17.7
2019-02-09T08:32:21.747Z,17.6
2019-02-09T08:33:31.387Z,17.6
2019-02-09T08:34:29.397Z,17.5
2019-02-09T08:35:26.712Z,17.5
2019-02-09T08:36:24.093Z,17.5
2019-02-09T08:37:29.355Z,17.4
2019-02-09T08:38:32.221Z,17.4
2019-02-09T08:39:30.417Z,17.3
2019-02-09T08:40:30.316Z,17.3
2019-02-09T08:41:28.120Z,17.3
2019-02-09T08:42:26.177Z,17.3
2019-02-09T08:43:24.727Z,17.3
2019-02-09T08:44:23.068Z,17.2
2019-02-09T08:45:23.110Z,17.3
2019-02-09T08:46:22.202Z,17.2
2019-02-09T08:47:21.652Z,17.3
2019-02-09T08:48:21.888Z,17.3
2019-02-09T08:49:21.441Z,17.3
2019-02-09T08:50:19.146Z,17.3
2019-02-09T08:51:16.278Z,17.4
2019-02-09T08:52:19.242Z,17.4
2019-02-09T08:53:17.164Z,17.3
2019-02-09T08:54:16.877Z,17.3
2019-02-09T08:55:15.661Z,17.3
2019-02-09T08:56:13.177Z,17.3
2019-02-09T08:57:10.369Z,17.3
2019-02-09T08:58:07.975Z,17.3
2019-02-09T08:59:05.026Z,17.3
2019-02-09T09:00:02.489Z,17.2
2019-02-09T09:01:01.594Z,17.2
2019-02-09T09:01:59.159Z,17.2
2019-02-09T09:02:57.713Z,17.2
2019-02-09T09:03:54.789Z,17.2
2019-02-09T09:04:52.689Z,17.2
2019-02-09T09:05:56.180Z,17.1
2019-02-09T09:06:55.568Z,17.1
2019-02-09T09:07:53.819Z,17.1
2019-02-09T09:08:56.526Z,17.1
2019-02-09T09:09:59.345Z,17.1
2019-02-09T09:10:58.334Z,17.1
2019-02-09T09:12:02.437Z,17.1
2019-02-09T09:13:02.489Z,17.1
2019-02-09T09:14:07.476Z,17.1
2019-02-09T09:15:05.429Z,17.2
2019-02-09T09:16:03.216Z,17.2
2019-02-09T09:17:02.340Z,17.2
2019-02-09T09:18:04.307Z,17.2
2019-02-09T09:19:01.395Z,17.3
2019-02-09T09:20:00.699Z,17.3
2019-02-09T09:20:58.291Z,17.3
2019-02-09T09:21:56.440Z,17.4
2019-02-09T09:22:54.261Z,17.4
2019-02-09T09:23:54.474Z,17.4
2019-02-09T09:24:52.289Z,17.5
2019-02-09T09:25:56.569Z,17.5
2019-02-09T09:26:54.135Z,17.5
2019-02-09T09:27:52.172Z,17.6
2019-02-09T09:28:50.323Z,17.6
2019-02-09T09:29:49.777Z,17.7
2019-02-09T09:30:47.042Z,17.7
2019-02-09T09:31:47.207Z,17.7
2019-02-09T09:32:45.106Z,17.8
2019-02-09T09:33:43.212Z,17.8
2019-02-09T09:34:42.631Z,17.9
2019-02-09T09:35:40.236Z,17.9
2019-02-09T09:36:39.842Z,17.9
2019-02-09T09:37:38.359Z,18
2019-02-09T09:38:38.856Z,18
2019-02-09T09:39:37.207Z,18
2019-02-09T09:40:37.593Z,18
2019-02-09T09:41:38.105Z,18
2019-02-09T09:42:41.186Z,18
2019-02-09T09:43:47.432Z,18
2019-02-09T09:44:45.303Z,18.1
2019-02-09T09:45:46.782Z,18.1
2019-02-09T09:46:46.440Z,18.1
2019-02-09T09:47:47.001Z,18.1
2019-02-09T09:48:45.581Z,18.1
2019-02-09T09:49:43.498Z,18.1
2019-02-09T09:50:43.746Z,18.2
2019-02-09T09:51:42.830Z,18.2
2019-02-09T09:52:46.384Z,18.2
2019-02-09T09:53:46.846Z,18.2
2019-02-09T09:54:44.608Z,18.3
2019-02-09T09:55:42.097Z,18.3
2019-02-09T09:56:40.294Z,18.3
2019-02-09T09:57:37.623Z,18.3
2019-02-09T09:58:37.409Z,18.4
2019-02-09T09:59:35.401Z,18.4
2019-02-09T10:00:33.469Z,18.5
2019-02-09T10:01:34.388Z,18.5
2019-02-09T10:02:36.524Z,18.6
2019-02-09T10:03:31.664Z,18.6
2019-02-09T10:04:30.919Z,18.7
2019-02-09T10:05:28.425Z,18.7
2019-02-09T10:06:27.252Z,18.8
2019-02-09T10:07:24.920Z,18.9
2019-02-09T10:08:24.308Z,18.9
2019-02-09T10:09:22.748Z,19
2019-02-09T10:10:23.282Z,19
2019-02-09T10:11:21.423Z,19.1
2019-02-09T10:12:19.195Z,19.2
2019-02-09T10:13:18.612Z,19.2
2019-02-09T10:14:16.806Z,19.3
2019-02-09T10:15:25.321Z,19.3
2019-02-09T10:16:16.198Z,19.4
2019-02-09T10:17:44.078Z,19.5
2019-02-09T10:18:43.147Z,19.5
2019-02-09T10:19:44.188Z,19.6
2019-02-09T10:20:39.908Z,19.7
2019-02-09T10:21:44.129Z,19.7
2019-02-09T10:22:40.423Z,19.8
2019-02-09T10:23:40.154Z,19.8
2019-02-09T10:24:39.351Z,19.8
2019-02-09T10:25:42.188Z,19.9
2019-02-09T10:26:40.808Z,20
2019-02-09T10:27:39.256Z,20
2019-02-09T10:28:37.204Z,20.1
2019-02-09T10:29:37.756Z,20.1
2019-02-09T10:30:40.972Z,20.2
2019-02-09T10:31:38.306Z,20.2
2019-02-09T10:32:35.964Z,20.3
2019-02-09T10:33:34.109Z,20.3
2019-02-09T10:34:31.097Z,20.4
2019-02-09T10:35:28.755Z,20.4
2019-02-09T10:36:27.061Z,20.4
2019-02-09T10:37:27.648Z,20.5
2019-02-09T10:38:31.506Z,20.5
2019-02-09T10:39:30.399Z,20.6
2019-02-09T10:40:28.464Z,20.6
2019-02-09T10:41:26.011Z,20.6
2019-02-09T10:42:30.181Z,20.7
2019-02-09T10:43:27.311Z,20.7
2019-02-09T10:44:30.597Z,20.7
2019-02-09T10:45:29.991Z,20.8
2019-02-09T10:46:27.299Z,20.8
2019-02-09T10:47:24.426Z,20.8
2019-02-09T10:48:23.568Z,20.8
2019-02-09T10:49:22.094Z,20.9
2019-02-09T10:50:21.727Z,20.9
2019-02-09T10:51:22.722Z,20.9
2019-02-09T10:52:22.656Z,20.9
2019-02-09T10:53:21.974Z,20.9
2019-02-09T10:54:20.618Z,21
2019-02-09T10:55:19.442Z,21
2019-02-09T10:56:16.909Z,21
2019-02-09T10:57:18.369Z,21
2019-02-09T10:58:19.259Z,21
2019-02-09T10:59:22.456Z,21
2019-02-09T11:00:20.707Z,21
2019-02-09T11:01:21.693Z,21
2019-02-09T11:02:22.145Z,21
2019-02-09T11:03:19.912Z,21
2019-02-09T11:04:17.089Z,21
2019-02-09T11:05:22.632Z,21
2019-02-09T11:06:20.000Z,21
2019-02-09T11:07:23.418Z,21
2019-02-09T11:08:23.344Z,21
2019-02-09T11:09:20.721Z,21
2019-02-09T11:10:24.357Z,21
2019-02-09T11:11:25.344Z,21
2019-02-09T11:12:25.641Z,21
2019-02-09T11:13:23.654Z,21
2019-02-09T11:14:22.619Z,21
2019-02-09T11:15:22.872Z,21
2019-02-09T11:16:22.919Z,21
2019-02-09T11:17:20.107Z,21
2019-02-09T11:18:23.141Z,21
2019-02-09T11:19:20.957Z,21
2019-02-09T11:20:18.678Z,20.9
2019-02-09T11:21:22.727Z,20.9
2019-02-09T11:22:21.231Z,20.9
2019-02-09T11:23:19.088Z,20.9
2019-02-09T11:24:17.556Z,20.9
2019-02-09T11:25:14.823Z,20.9
2019-02-09T11:26:16.734Z,20.9
2019-02-09T11:27:15.712Z,20.9
2019-02-09T11:28:12.860Z,20.9
2019-02-09T11:29:16.495Z,20.9
2019-02-09T11:30:15.626Z,20.8
2019-02-09T11:31:15.825Z,20.8
2019-02-09T11:32:14.845Z,20.8
2019-02-09T11:33:15.007Z,20.8
2019-02-09T11:34:12.248Z,20.8
2019-02-09T11:35:10.593Z,20.8
2019-02-09T11:36:07.950Z,20.8
2019-02-09T11:37:09.907Z,20.8
2019-02-09T11:38:14.591Z,20.7
2019-02-09T11:39:14.358Z,20.7
2019-02-09T11:40:12.624Z,20.7
2019-02-09T11:41:12.838Z,20.7
2019-02-09T11:42:12.025Z,20.7
2019-02-09T11:43:09.332Z,20.7
2019-02-09T11:44:09.178Z,20.6
2019-02-09T11:45:08.163Z,20.7
2019-02-09T11:46:05.582Z,20.7
2019-02-09T11:47:02.728Z,20.6
2019-02-09T11:48:06.588Z,20.6
2019-02-09T11:49:05.825Z,20.6
2019-02-09T11:50:06.422Z,20.6
2019-02-09T11:51:03.232Z,20.6
2019-02-09T11:52:01.334Z,20.6
2019-02-09T11:52:59.618Z,20.6
2019-02-09T11:53:56.785Z,20.6
2019-02-09T11:54:59.443Z,20.6
2019-02-09T11:56:07.465Z,20.6
2019-02-09T11:57:05.569Z,20.6
2019-02-09T11:58:04.694Z,20.6
2019-02-09T11:59:02.396Z,20.6
2019-02-09T12:00:02.472Z,20.5
2019-02-09T12:01:00.472Z,20.5
2019-02-09T12:02:01.599Z,20.5
2019-02-09T12:03:05.392Z,20.5
2019-02-09T12:03:14.573Z,20.5
2019-02-09T12:03:15.140Z,20.5
2019-02-09T12:04:00.519Z,20.5
2019-02-09T12:05:04.807Z,20.5
2019-02-09T12:06:04.904Z,20.5
2019-02-09T12:07:06.969Z,20.5
2019-02-09T12:08:06.394Z,20.5
2019-02-09T12:09:05.809Z,20.5
2019-02-09T12:10:03.814Z,20.5
2019-02-09T12:11:01.901Z,20.6
2019-02-09T12:12:00.308Z,20.5
2019-02-09T12:13:02.627Z,20.6
2019-02-09T12:13:59.412Z,20.6
2019-02-09T12:14:57.170Z,20.6
2019-02-09T12:15:54.848Z,20.6
2019-02-09T12:16:53.638Z,20.6
2019-02-09T12:17:52.931Z,20.6
2019-02-09T12:18:55.481Z,20.6
2019-02-09T12:19:54.039Z,20.6
2019-02-09T12:20:52.117Z,20.6
2019-02-09T12:21:50.465Z,20.6
2019-02-09T12:22:49.250Z,20.6
2019-02-09T12:23:47.712Z,20.7
2019-02-09T12:24:46.077Z,20.7
2019-02-09T12:25:49.632Z,20.7
2019-02-09T12:26:51.049Z,20.7
2019-02-09T12:27:48.364Z,20.7
2019-02-09T12:28:47.093Z,20.7
2019-02-09T12:29:48.686Z,20.7
2019-02-09T12:30:49.387Z,20.7
2019-02-09T12:31:51.436Z,20.8
2019-02-09T12:32:50.367Z,20.8
2019-02-09T12:33:48.457Z,20.8
2019-02-09T12:34:50.144Z,20.8
2019-02-09T12:35:48.092Z,20.8
2019-02-09T12:36:50.272Z,20.8
2019-02-09T12:37:57.171Z,20.8
2019-02-09T12:38:55.659Z,20.8
2019-02-09T12:39:52.818Z,20.9
2019-02-09T12:40:54.769Z,20.9
2019-02-09T12:41:51.911Z,20.9
2019-02-09T12:42:54.398Z,20.9
2019-02-09T12:43:51.970Z,20.9
2019-02-09T12:44:58.679Z,20.9
2019-02-09T12:46:01.054Z,20.9
2019-02-09T12:47:04.226Z,20.9
2019-02-09T12:48:03.817Z,21
2019-02-09T12:49:02.605Z,20.9
2019-02-09T12:50:00.554Z,20.9
2019-02-09T12:51:03.092Z,21
2019-02-09T12:52:02.084Z,21
2019-02-09T12:53:02.441Z,21
2019-02-09T12:54:01.818Z,21
2019-02-09T12:54:47.038Z,21
2019-02-09T12:55:45.293Z,21
2019-02-09T12:56:43.545Z,21
2019-02-09T12:57:42.941Z,21
2019-02-09T12:58:40.594Z,21
2019-02-09T12:59:38.479Z,21
2019-02-09T13:00:40.215Z,21
2019-02-09T13:01:41.272Z,21
2019-02-09T13:02:38.764Z,21
2019-02-09T13:03:39.612Z,21
2019-02-09T13:04:39.759Z,21
2019-02-09T13:05:39.355Z,21
2019-02-09T13:06:36.874Z,21
2019-02-09T13:07:40.670Z,21
2019-02-09T13:08:37.308Z,21
2019-02-09T13:09:37.992Z,21
2019-02-09T13:10:41.416Z,21
2019-02-09T13:11:47.997Z,21
2019-02-09T13:12:48.076Z,21
2019-02-09T13:13:45.316Z,21
2019-02-09T13:14:43.452Z,21
2019-02-09T13:15:43.344Z,21
2019-02-09T13:16:42.459Z,21
2019-02-09T13:17:46.234Z,21
2019-02-09T13:18:56.216Z,21
2019-02-09T13:19:56.065Z,20.9
2019-02-09T13:20:54.012Z,21
2019-02-09T13:21:52.064Z,20.9
2019-02-09T13:22:49.691Z,20.9
2019-02-09T13:23:48.605Z,20.9
2019-02-09T13:24:46.083Z,20.9
2019-02-09T13:25:43.224Z,20.9
2019-02-09T13:26:41.200Z,20.9